createdAt,value
2023-01-13T00:01:23.206Z,94.20
2023-01-13T00:03:52.774Z,94.00
2023-01-13T00:06:22.611Z,94.00
2023-01-13T00:08:52.379Z,94.10
2023-01-13T00:11:21.478Z,94.00
2023-01-13T00:13:49.543Z,94.00
2023-01-13T00:16:19.508Z,93.90
2023-01-13T00:18:48.867Z,93.80
2023-01-13T00:21:20.015Z,93.60
2023-01-13T00:23:48.794Z,93.60
2023-01-13T00:26:19.206Z,93.40
2023-01-13T00:28:47.654Z,93.50
2023-01-13T00:31:17.668Z,93.50
2023-01-13T00:33:45.952Z,93.40
2023-01-13T00:36:15.407Z,93.30
2023-01-13T00:38:45.175Z,93.40
2023-01-13T00:41:15.387Z,93.40
2023-01-13T00:43:43.119Z,93.60
2023-01-13T00:46:13.263Z,93.70
2023-01-13T00:48:41.491Z,94.20
2023-01-13T00:51:11.997Z,94.00
2023-01-13T00:53:43.584Z,94.10
2023-01-13T00:56:16.625Z,94.20
2023-01-13T00:58:45.694Z,94.20
2023-01-13T01:01:16.333Z,94.30
2023-01-13T01:03:44.403Z,94.30
2023-01-13T01:06:16.209Z,94.30
2023-01-13T01:08:44.913Z,94.30
2023-01-13T01:11:15.936Z,94.40
2023-01-13T01:13:44.444Z,94.30
2023-01-13T01:16:14.131Z,94.30
2023-01-13T01:18:44.586Z,94.60
2023-01-13T01:21:13.691Z,94.20
2023-01-13T01:23:42.224Z,94.20
2023-01-13T01:26:13.141Z,94.20
2023-01-13T01:28:42.961Z,94.20
2023-01-13T01:31:14.408Z,94.20
2023-01-13T01:33:42.372Z,94.30
2023-01-13T01:36:12.175Z,94.30
2023-01-13T01:38:40.212Z,94.30
2023-01-13T01:41:08.528Z,94.20
2023-01-13T01:43:59.487Z,94.30
2023-01-13T01:46:28.650Z,94.20
2023-01-13T01:49:01.607Z,94.30
2023-01-13T01:51:33.564Z,94.30
2023-01-13T01:54:03.696Z,94.30
2023-01-13T01:56:33.480Z,94.20
2023-01-13T01:59:02.857Z,94.20
2023-01-13T02:01:30.912Z,94.00
2023-01-13T02:04:04.727Z,94.00
2023-01-13T02:06:32.885Z,94.00
2023-01-13T02:09:02.265Z,93.90
2023-01-13T02:11:52.922Z,93.80
2023-01-13T02:14:24.063Z,93.60
2023-01-13T02:17:11.924Z,93.50
2023-01-13T02:20:22.732Z,93.50
2023-01-13T02:23:44.807Z,93.40
2023-01-13T02:26:46.263Z,93.30
2023-01-13T02:29:45.206Z,93.30
2023-01-13T02:32:21.512Z,93.40
2023-01-13T02:34:56.780Z,93.20
2023-01-13T02:37:29.741Z,93.20
2023-01-13T02:40:01.460Z,93.10
2023-01-13T02:42:51.012Z,93.20
2023-01-13T02:45:25.318Z,93.20
2023-01-13T02:47:55.766Z,93.00
2023-01-13T02:50:28.968Z,93.10
2023-01-13T02:53:01.609Z,93.10
2023-01-13T02:55:34.107Z,93.00
2023-01-13T02:58:04.629Z,93.00
2023-01-13T03:00:34.527Z,92.90
2023-01-13T03:03:03.161Z,93.00
2023-01-13T03:05:32.817Z,92.80
2023-01-13T03:08:23.946Z,92.80
2023-01-13T03:11:02.918Z,92.60
2023-01-13T03:13:44.905Z,92.50
2023-01-13T03:16:21.890Z,92.50
2023-01-13T03:18:56.822Z,92.50
2023-01-13T03:21:29.613Z,92.40
2023-01-13T03:24:01.569Z,92.40
2023-01-13T03:26:34.093Z,92.40
2023-01-13T03:29:09.855Z,92.40
2023-01-13T03:31:47.788Z,92.40
2023-01-13T03:34:18.905Z,92.40
2023-01-13T03:36:52.649Z,92.40
2023-01-13T03:39:26.420Z,92.40
2023-01-13T03:41:59.988Z,92.40
2023-01-13T03:44:32.888Z,92.50
2023-01-13T03:47:10.722Z,92.50
2023-01-13T03:49:42.566Z,92.50
2023-01-13T03:52:15.672Z,92.50
2023-01-13T03:54:49.613Z,92.60
2023-01-13T03:57:20.696Z,92.70
2023-01-13T03:59:55.211Z,92.60
2023-01-13T04:02:37.257Z,92.40
2023-01-13T04:05:09.382Z,92.50
2023-01-13T04:07:47.838Z,92.50
2023-01-13T04:10:20.654Z,92.40
2023-01-13T04:13:02.970Z,92.40
2023-01-13T04:15:34.598Z,92.20
2023-01-13T04:18:16.273Z,92.40
2023-01-13T04:20:45.074Z,92.60
2023-01-13T04:23:13.705Z,92.30
2023-01-13T04:25:42.105Z,92.20
2023-01-13T04:28:10.506Z,92.20
2023-01-13T04:30:39.098Z,92.20
2023-01-13T04:33:07.288Z,92.00
2023-01-13T04:35:37.168Z,92.10
2023-01-13T04:38:06.569Z,91.70
2023-01-13T04:40:34.662Z,91.90
2023-01-13T04:43:02.515Z,91.90
2023-01-13T04:45:30.378Z,91.70
2023-01-13T04:47:58.264Z,91.60
2023-01-13T04:50:26.490Z,91.30
2023-01-13T04:52:56.261Z,91.30
2023-01-13T04:55:25.525Z,91.20
2023-01-13T04:57:53.557Z,91.00
2023-01-13T05:00:25.317Z,91.10
2023-01-13T05:02:53.356Z,91.20
2023-01-13T05:05:21.690Z,91.10
2023-01-13T05:07:52.439Z,91.20
2023-01-13T05:10:23.895Z,91.20
2023-01-13T05:13:10.086Z,91.10
2023-01-13T05:15:57.607Z,91.20
2023-01-13T05:18:25.795Z,91.40
2023-01-13T05:20:53.581Z,91.50
2023-01-13T05:23:39.116Z,91.50
2023-01-13T05:26:08.554Z,91.60
2023-01-13T05:28:36.434Z,91.60
2023-01-13T05:31:04.347Z,91.70
2023-01-13T05:33:33.673Z,91.70
2023-01-13T05:36:04.233Z,91.70
2023-01-13T05:38:32.009Z,91.90
2023-01-13T05:41:18.176Z,91.90
2023-01-13T05:43:47.809Z,91.80
2023-01-13T05:46:17.631Z,91.80
2023-01-13T05:48:45.680Z,91.90
2023-01-13T05:51:14.365Z,91.80
2023-01-13T05:53:42.393Z,91.70
2023-01-13T05:56:10.743Z,91.80
2023-01-13T05:58:38.710Z,91.60
2023-01-13T06:01:10.093Z,91.60
2023-01-13T06:03:38.748Z,91.50
2023-01-13T06:06:08.791Z,91.60
2023-01-13T06:08:39.448Z,91.50
2023-01-13T06:11:07.847Z,91.50
2023-01-13T06:13:35.790Z,91.50
2023-01-13T06:16:03.794Z,91.40
2023-01-13T06:18:33.231Z,91.40
2023-01-13T06:21:01.082Z,91.40
2023-01-13T06:23:29.450Z,91.50
2023-01-13T06:26:05.092Z,91.50
2023-01-13T06:28:33.277Z,91.50
2023-01-13T06:31:04.621Z,91.50
2023-01-13T06:33:37.917Z,91.60
2023-01-13T06:36:09.330Z,91.60
2023-01-13T06:38:41.786Z,91.60
2023-01-13T06:41:09.942Z,91.50
2023-01-13T06:43:37.994Z,91.60
2023-01-13T06:46:06.110Z,91.60
2023-01-13T06:48:36.151Z,91.60
2023-01-13T06:51:04.756Z,91.60
2023-01-13T06:53:32.976Z,91.70
2023-01-13T06:56:00.923Z,91.70
2023-01-13T06:58:28.754Z,91.60
2023-01-13T07:01:01.274Z,91.70
2023-01-13T07:03:29.235Z,91.60
2023-01-13T07:05:58.719Z,91.60
2023-01-13T07:08:26.585Z,91.60
2023-01-13T07:10:54.544Z,91.70
2023-01-13T07:13:37.399Z,91.60
2023-01-13T07:16:07.952Z,91.60
2023-01-13T07:18:36.355Z,91.60
2023-01-13T07:21:07.928Z,91.60
2023-01-13T07:23:37.573Z,91.40
2023-01-13T07:26:06.043Z,91.40
2023-01-13T07:28:34.613Z,91.40
2023-01-13T07:31:02.747Z,91.60
2023-01-13T07:33:32.937Z,91.40
2023-01-13T07:36:02.715Z,91.30
2023-01-13T07:38:33.108Z,91.30
2023-01-13T07:41:22.336Z,91.20
2023-01-13T07:43:49.550Z,91.20
2023-01-13T07:46:18.352Z,91.00
2023-01-13T07:48:49.886Z,91.20
2023-01-13T07:51:17.714Z,90.80
2023-01-13T07:53:46.935Z,90.80
2023-01-13T07:56:14.889Z,90.70
2023-01-13T07:58:42.713Z,90.80
2023-01-13T08:01:12.211Z,90.70
2023-01-13T08:03:40.387Z,90.50
2023-01-13T08:06:08.911Z,90.60
2023-01-13T08:08:37.044Z,90.60
2023-01-13T08:11:08.248Z,90.60
2023-01-13T08:13:36.326Z,90.50
2023-01-13T08:16:07.090Z,90.50
2023-01-13T08:18:36.362Z,90.40
2023-01-13T08:21:07.727Z,90.40
2023-01-13T08:23:35.780Z,90.20
2023-01-13T08:26:04.664Z,90.30
2023-01-13T08:28:34.356Z,90.40
2023-01-13T08:31:02.953Z,90.10
2023-01-13T08:33:31.151Z,90.30
2023-01-13T08:35:59.620Z,90.20
2023-01-13T08:38:27.569Z,90.30
2023-01-13T08:40:55.763Z,90.30
2023-01-13T08:43:24.160Z,90.30
2023-01-13T08:46:01.763Z,90.50
2023-01-13T08:48:31.635Z,90.40
2023-01-13T08:51:04.849Z,90.60
2023-01-13T08:53:32.790Z,90.60
2023-01-13T08:56:00.892Z,90.70
2023-01-13T08:58:28.784Z,90.80
2023-01-13T09:00:56.847Z,90.90
2023-01-13T09:03:26.376Z,91.00
2023-01-13T09:05:54.410Z,90.90
2023-01-13T09:08:23.304Z,91.10
2023-01-13T09:10:54.393Z,91.20
2023-01-13T09:13:22.128Z,91.00
2023-01-13T09:15:50.868Z,91.30
2023-01-13T09:18:18.837Z,91.40
2023-01-13T09:20:48.046Z,91.40
2023-01-13T09:23:15.941Z,91.40
2023-01-13T09:25:43.824Z,91.50
2023-01-13T09:28:11.705Z,91.50
2023-01-13T09:30:39.553Z,91.60
2023-01-13T09:33:25.186Z,91.60
2023-01-13T09:35:59.001Z,91.70
2023-01-13T09:38:26.894Z,91.60
2023-01-13T09:40:55.676Z,91.60
2023-01-13T09:43:47.849Z,91.70
2023-01-13T09:46:32.929Z,91.80
2023-01-13T10:03:04.667Z,91.60
2023-01-13T10:05:37.422Z,91.90
2023-01-13T10:08:12.147Z,91.80
2023-01-13T10:10:43.802Z,91.80
2023-01-13T10:13:16.571Z,91.90
2023-01-13T10:15:53.609Z,91.90
2023-01-13T10:18:29.026Z,91.90
2023-01-13T10:21:06.015Z,91.90
2023-01-13T10:23:52.230Z,91.90
2023-01-13T10:26:37.380Z,91.90
2023-01-13T10:29:17.746Z,91.80
2023-01-13T10:31:45.639Z,91.90
2023-01-13T10:34:16.744Z,91.90
2023-01-13T10:36:59.972Z,91.80
2023-01-13T10:39:28.226Z,91.90
2023-01-13T10:42:03.988Z,91.90
2023-01-13T10:44:31.879Z,91.90
2023-01-13T10:47:00.694Z,91.90
2023-01-13T10:49:33.643Z,91.90
2023-01-13T10:52:02.591Z,91.90
2023-01-13T10:54:31.207Z,91.80
2023-01-13T10:57:16.495Z,91.90
2023-01-13T10:59:44.917Z,91.80
2023-01-13T11:02:29.230Z,91.80
2023-01-13T11:05:17.678Z,91.80
2023-01-13T11:07:52.444Z,91.80
2023-01-13T11:10:27.313Z,91.80
2023-01-13T11:13:00.461Z,91.70
2023-01-13T11:15:40.443Z,92.10
2023-01-13T11:18:15.911Z,91.60
2023-01-13T11:20:47.804Z,91.70
2023-01-13T11:23:22.852Z,91.70
2023-01-13T11:25:55.933Z,91.50
2023-01-13T11:28:42.157Z,91.60
2023-01-13T11:31:16.044Z,91.40
2023-01-13T11:33:49.639Z,91.40
2023-01-13T11:36:23.031Z,91.20
2023-01-13T11:38:53.879Z,91.30
2023-01-13T11:41:41.955Z,91.10
2023-01-13T11:44:19.002Z,91.00
2023-01-13T11:46:50.743Z,91.00
2023-01-13T11:49:26.126Z,91.10
2023-01-13T11:52:01.656Z,90.80
2023-01-13T11:55:00.322Z,90.70
2023-01-13T11:57:53.473Z,90.40
2023-01-13T12:01:03.536Z,90.50
2023-01-13T12:03:37.014Z,90.70
2023-01-13T12:06:24.153Z,90.60
2023-01-13T12:09:19.394Z,90.50
2023-01-13T12:12:14.043Z,90.50
2023-01-13T12:14:55.708Z,90.40
2023-01-13T12:17:31.297Z,90.80
2023-01-13T12:20:01.426Z,90.50
2023-01-13T12:22:34.251Z,90.60
2023-01-13T12:25:14.033Z,90.40
2023-01-13T12:27:47.382Z,90.50
2023-01-13T12:30:26.679Z,90.40
2023-01-13T12:32:56.649Z,90.30
2023-01-13T12:35:38.415Z,90.40
2023-01-13T12:38:13.024Z,90.10
2023-01-13T12:40:53.197Z,90.10
2023-01-13T12:43:41.079Z,90.20
2023-01-13T12:46:44.780Z,90.10
2023-01-13T12:49:22.170Z,90.00
2023-01-13T12:52:15.318Z,89.80
2023-01-13T12:55:16.881Z,89.70
2023-01-13T12:58:27.171Z,89.30
2023-01-13T13:01:02.146Z,89.40
2023-01-13T13:03:33.647Z,89.30
2023-01-13T13:06:13.495Z,89.30
2023-01-13T13:08:51.954Z,88.70
2023-01-13T13:12:02.761Z,88.60
2023-01-13T13:15:22.448Z,88.70
2023-01-13T13:18:21.391Z,88.20
2023-01-13T13:21:05.158Z,88.20
2023-01-13T13:23:55.225Z,88.10
2023-01-13T13:26:32.625Z,88.10
2023-01-13T13:29:34.896Z,87.80
2023-01-13T13:32:33.309Z,88.10
2023-01-13T13:35:17.612Z,87.10
2023-01-13T13:38:17.046Z,87.80
2023-01-13T13:41:05.564Z,87.30
2023-01-13T13:43:57.999Z,87.70
2023-01-13T13:46:46.846Z,87.60
2023-01-13T13:49:18.085Z,87.30
2023-01-13T13:51:53.020Z,87.30
2023-01-13T13:54:23.633Z,87.50
2023-01-13T13:56:52.937Z,87.10
2023-01-13T13:59:24.816Z,87.10
2023-01-13T14:02:01.192Z,86.90
2023-01-13T14:04:33.604Z,87.30
2023-01-13T14:07:04.450Z,87.20
2023-01-13T14:09:41.956Z,87.10
2023-01-13T14:12:19.064Z,87.00
2023-01-13T14:14:51.095Z,86.90
2023-01-13T14:17:23.385Z,87.20
2023-01-13T14:20:00.973Z,87.20
2023-01-13T14:22:29.200Z,87.00
2023-01-13T14:24:58.016Z,87.30
2023-01-13T14:27:28.579Z,87.00
2023-01-13T14:29:58.357Z,87.20
2023-01-13T14:32:32.192Z,87.00
2023-01-13T14:35:01.599Z,87.00
2023-01-13T14:37:34.895Z,86.90
2023-01-13T14:40:03.014Z,87.00
2023-01-13T14:42:35.214Z,87.10
2023-01-13T14:45:03.489Z,87.80
2023-01-13T14:47:33.864Z,86.80
2023-01-13T14:50:07.513Z,86.90
2023-01-13T14:52:37.531Z,86.60
2023-01-13T14:55:23.610Z,86.90
2023-01-13T14:57:54.243Z,86.50
2023-01-13T15:00:26.219Z,86.40
2023-01-13T15:03:08.585Z,86.40
2023-01-13T15:05:47.980Z,85.80
2023-01-13T15:08:46.019Z,86.20
2023-01-13T15:11:25.079Z,85.90
2023-01-13T15:13:59.074Z,86.50
2023-01-13T15:16:29.467Z,86.50
2023-01-13T15:18:58.794Z,86.80
2023-01-13T15:21:27.947Z,86.60
2023-01-13T15:23:56.111Z,86.10
2023-01-13T15:26:26.546Z,86.30
2023-01-13T15:28:59.106Z,86.40
2023-01-13T15:31:28.054Z,86.60
2023-01-13T15:33:56.142Z,86.50
2023-01-13T15:36:28.647Z,86.30
2023-01-13T15:38:57.121Z,86.30
2023-01-13T15:41:39.450Z,86.00
2023-01-13T15:44:24.870Z,86.40
2023-01-13T15:46:53.420Z,86.70
2023-01-13T15:49:26.256Z,86.40
2023-01-13T15:51:55.581Z,86.60
2023-01-13T15:54:24.667Z,86.40
2023-01-13T15:56:53.847Z,86.50
2023-01-13T15:59:26.051Z,86.70
2023-01-13T16:01:53.982Z,87.50
2023-01-13T16:04:22.294Z,86.70
2023-01-13T16:06:51.780Z,86.80
2023-01-13T16:09:24.157Z,86.90
2023-01-13T16:11:52.353Z,86.80
2023-01-13T16:14:22.066Z,86.80
2023-01-13T16:16:50.725Z,87.00
2023-01-13T16:19:18.799Z,87.00
2023-01-13T16:21:46.840Z,87.00
2023-01-13T16:24:14.699Z,86.90
2023-01-13T16:26:43.972Z,86.80
2023-01-13T16:29:12.875Z,87.00
2023-01-13T16:31:40.864Z,86.90
2023-01-13T16:34:08.865Z,87.10
2023-01-13T16:36:37.625Z,87.00
2023-01-13T16:39:06.463Z,87.10
2023-01-13T16:41:34.829Z,87.60
2023-01-13T16:44:06.185Z,87.30
2023-01-13T16:46:35.170Z,87.40
2023-01-13T16:49:05.187Z,87.50
2023-01-13T16:51:34.248Z,87.50
2023-01-13T16:54:02.217Z,87.30
2023-01-13T16:56:31.934Z,87.60
2023-01-13T16:59:03.081Z,87.90
2023-01-13T17:01:33.706Z,88.10
2023-01-13T17:04:02.718Z,88.60
2023-01-13T17:06:35.507Z,89.00
2023-01-13T17:09:05.004Z,89.70
2023-01-13T17:11:33.325Z,90.00
2023-01-13T17:14:18.440Z,90.00
2023-01-13T17:16:50.213Z,90.00
2023-01-13T17:19:18.996Z,89.30
2023-01-13T17:21:52.379Z,89.20
2023-01-13T17:24:21.066Z,89.50
2023-01-13T17:26:53.364Z,89.60
2023-01-13T17:29:22.998Z,89.30
2023-01-13T17:31:53.575Z,89.00
2023-01-13T17:34:23.699Z,89.80
2023-01-13T17:36:53.797Z,89.80
2023-01-13T17:39:24.661Z,89.70
2023-01-13T17:41:55.863Z,89.70
2023-01-13T17:44:23.958Z,89.70
2023-01-13T17:46:54.442Z,89.50
2023-01-13T17:49:22.916Z,89.70
2023-01-13T17:51:51.471Z,89.70
2023-01-13T17:54:20.089Z,89.70
2023-01-13T17:56:52.151Z,90.00
2023-01-13T17:59:22.429Z,90.00
2023-01-13T18:01:51.152Z,90.30
2023-01-13T18:04:22.577Z,90.40
2023-01-13T18:06:51.626Z,90.70
2023-01-13T18:09:19.465Z,90.40
2023-01-13T18:11:48.131Z,90.80
2023-01-13T18:14:16.628Z,90.90
2023-01-13T18:16:45.120Z,91.00
2023-01-13T18:19:31.377Z,91.20
2023-01-13T18:22:18.199Z,91.20
2023-01-13T18:25:03.588Z,91.30
2023-01-13T18:27:33.691Z,91.20
2023-01-13T18:30:02.660Z,91.50
2023-01-13T18:32:33.189Z,91.40
2023-01-13T18:35:05.977Z,91.60
2023-01-13T18:37:38.475Z,91.70
2023-01-13T18:40:09.259Z,91.70
2023-01-13T18:42:51.832Z,91.70
2023-01-13T18:45:20.914Z,91.50
2023-01-13T18:47:50.284Z,91.50
2023-01-13T18:50:18.869Z,91.50
2023-01-13T18:52:51.674Z,91.40
2023-01-13T18:55:21.153Z,91.50
2023-01-13T18:57:50.739Z,91.50
2023-01-13T19:00:22.637Z,91.50
2023-01-13T19:05:35.374Z,91.50
2023-01-13T19:08:04.981Z,91.50
2023-01-13T19:10:33.023Z,91.50
2023-01-13T19:13:02.178Z,91.50
2023-01-13T19:15:30.114Z,91.50
2023-01-13T19:17:58.001Z,91.40
2023-01-13T19:20:25.916Z,91.40
2023-01-13T19:22:54.474Z,91.40
2023-01-13T19:25:24.104Z,91.50
2023-01-13T19:27:52.316Z,91.50
2023-01-13T19:30:20.594Z,91.60
2023-01-13T19:32:51.465Z,91.60
2023-01-13T19:35:20.673Z,91.60
2023-01-13T19:37:51.731Z,91.40
2023-01-13T19:40:20.287Z,91.40
2023-01-13T19:43:25.421Z,91.50
2023-01-13T19:45:53.302Z,91.50
2023-01-13T19:48:21.788Z,91.40
2023-01-13T19:50:50.173Z,91.50
2023-01-13T19:53:18.752Z,91.50
2023-01-13T19:55:48.321Z,91.60
2023-01-13T19:58:20.755Z,91.60
2023-01-13T20:00:52.745Z,91.60
2023-01-13T20:03:24.177Z,91.40
2023-01-13T20:05:53.557Z,91.40
2023-01-13T20:08:25.764Z,91.40
2023-01-13T20:11:13.915Z,91.40
2023-01-13T20:13:43.068Z,91.50
2023-01-13T20:16:11.233Z,91.40
2023-01-13T20:18:39.155Z,91.50
2023-01-13T20:21:08.459Z,91.50
2023-01-13T20:23:36.926Z,91.40
2023-01-13T20:26:08.401Z,91.30
2023-01-13T20:28:38.744Z,91.30
2023-01-13T20:31:09.638Z,91.30
2023-01-13T20:33:38.502Z,91.30
2023-01-13T20:36:07.267Z,91.60
2023-01-13T20:38:38.178Z,91.60
2023-01-13T20:41:28.710Z,91.60
2023-01-13T20:43:55.806Z,91.70
2023-01-13T20:46:25.237Z,91.60
2023-01-13T20:48:53.166Z,91.70
2023-01-13T20:51:21.547Z,91.70
2023-01-13T20:53:50.063Z,91.70
2023-01-13T20:56:17.902Z,91.70
2023-01-13T20:58:45.737Z,91.70
2023-01-13T21:01:13.860Z,91.80
2023-01-13T21:03:43.243Z,91.70
2023-01-13T21:06:11.364Z,91.80
2023-01-13T21:08:39.298Z,91.90
2023-01-13T21:11:10.453Z,91.90
2023-01-13T21:14:04.297Z,91.90
2023-01-13T21:16:33.163Z,92.00
2023-01-13T21:19:07.377Z,92.00
2023-01-13T21:21:35.336Z,92.00
2023-01-13T21:24:04.443Z,91.90
2023-01-13T21:26:33.005Z,92.00
2023-01-13T21:29:02.322Z,92.00
2023-01-13T21:31:30.270Z,92.10
2023-01-13T21:33:59.332Z,92.10
2023-01-13T21:36:29.207Z,92.10
2023-01-13T21:38:59.453Z,92.10
2023-01-13T21:41:45.459Z,92.00
2023-01-13T21:44:33.244Z,92.00
2023-01-13T21:47:18.676Z,91.90
2023-01-13T21:49:46.724Z,91.90
2023-01-13T21:52:16.599Z,91.80
2023-01-13T21:54:58.387Z,91.80
2023-01-13T21:57:27.426Z,91.80
2023-01-13T21:59:55.564Z,91.70
2023-01-13T22:02:31.826Z,91.70
2023-01-13T22:05:00.865Z,91.60
2023-01-13T22:07:32.423Z,91.60
2023-01-13T22:10:00.428Z,91.60
2023-01-13T22:12:29.541Z,91.50
2023-01-13T22:14:57.830Z,91.50
2023-01-13T22:17:27.120Z,91.60
2023-01-13T22:19:57.112Z,91.60
2023-01-13T22:22:26.323Z,91.60
2023-01-13T22:24:55.828Z,91.60
2023-01-13T22:27:25.987Z,91.60
2023-01-13T22:29:54.401Z,91.60
2023-01-13T22:32:22.938Z,91.60
2023-01-13T22:34:50.786Z,91.60
2023-01-13T22:37:18.631Z,91.50
2023-01-13T22:39:46.621Z,91.50
2023-01-13T22:42:15.879Z,91.50
2023-01-13T22:44:44.416Z,91.40
2023-01-13T22:47:12.274Z,91.30
2023-01-13T22:49:42.012Z,91.30
2023-01-13T22:52:09.906Z,91.20
2023-01-13T22:54:37.735Z,91.10
2023-01-13T22:57:05.665Z,91.10
2023-01-13T22:59:34.794Z,91.00
2023-01-13T23:02:02.668Z,91.00
2023-01-13T23:04:30.585Z,91.00
2023-01-13T23:06:59.953Z,91.00
2023-01-13T23:09:29.732Z,90.90
2023-01-13T23:11:58.850Z,90.80
2023-01-13T23:14:27.036Z,90.80
2023-01-13T23:16:56.268Z,90.70
2023-01-13T23:19:24.115Z,90.70
2023-01-13T23:21:54.847Z,90.70
2023-01-13T23:24:25.828Z,90.60
2023-01-13T23:26:53.845Z,90.60
2023-01-13T23:29:21.777Z,90.70
2023-01-13T23:31:49.685Z,90.60
2023-01-13T23:34:18.916Z,90.60
2023-01-13T23:36:46.920Z,90.50
2023-01-13T23:39:14.737Z,90.60
2023-01-13T23:41:42.645Z,90.50
2023-01-13T23:44:10.975Z,90.40
2023-01-13T23:46:38.887Z,90.40
2023-01-13T23:49:06.802Z,90.40
2023-01-13T23:51:36.071Z,90.20
2023-01-13T23:54:03.964Z,90.30
2023-01-13T23:56:32.874Z,90.30
2023-01-13T23:59:00.928Z,90.30
